Time;durP1;ratioP1;P1;durP2;ratioP2;P2;SDS_P1;SDS_P2;PMS_P1;PMS_P2;Temp;Humidity;BMP_temperature;BMP_pressure;BME280_temperature;BME280_humidity;BME280_pressure;Samples;Min_cycle;Max_cycle;Signal;HPM_P1;HPM_P2
2024/01/03 00:02:58;;;;;;;0.50;0.50;;;;;;;8.53;100.00;98500.50;10416046;28;20330;-69
2024/01/03 00:07:59;;;;;;;0.40;0.40;;;;;;;8.66;100.00;98503.94;10416620;28;20124;-69
2024/01/03 00:12:59;;;;;;;3.33;3.10;;;;;;;8.71;100.00;98523.75;10415807;28;20033;-70
2024/01/03 00:18:02;;;;;;;2.92;2.83;;;;;;;8.77;100.00;98517.34;10427049;28;20033;-70
2024/01/03 00:23:06;;;;;;;1.08;1.08;;;;;;;8.87;100.00;98541.03;10423516;28;20517;-70
2024/01/03 00:28:07;;;;;;;0.30;0.30;;;;;;;8.96;100.00;98542.22;10418792;28;20097;-69
2024/01/03 00:33:07;;;;;;;0.40;0.40;;;;;;;9.06;100.00;98552.38;10422252;28;20034;-70
2024/01/03 00:38:08;;;;;;;0.47;0.47;;;;;;;9.12;100.00;98550.59;10422307;28;20469;-70
2024/01/03 00:43:08;;;;;;;0.35;0.35;;;;;;;9.19;100.00;98556.63;10416624;28;20061;-68
2024/01/03 00:48:08;;;;;;;0.82;0.82;;;;;;;9.23;100.00;98572.13;10416171;28;20025;-68
2024/01/03 00:53:09;;;;;;;23.73;8.25;;;;;;;9.32;100.00;98594.13;10415176;28;20087;-68
2024/01/03 00:58:10;;;;;;;17.30;6.80;;;;;;;9.37;100.00;98588.78;10418468;28;20025;-69
2024/01/03 01:03:10;;;;;;;27.88;8.60;;;;;;;9.38;100.00;98589.59;10413669;28;20079;-68
2024/01/03 01:08:10;;;;;;;19.67;5.45;;;;;;;9.32;100.00;98621.13;10413527;28;20430;-68
2024/01/03 01:13:11;;;;;;;20.50;7.13;;;;;;;9.39;100.00;98623.69;10429901;28;20109;-67
2024/01/03 01:18:11;;;;;;;22.27;7.28;;;;;;;9.40;100.00;98626.13;10416730;28;20025;-70
2024/01/03 01:23:12;;;;;;;17.40;7.13;;;;;;;9.48;100.00;98636.53;10419770;28;20072;-69
2024/01/03 01:28:12;;;;;;;15.30;5.70;;;;;;;9.50;100.00;98636.25;10419314;28;20037;-68
2024/01/03 01:33:12;;;;;;;25.42;7.88;;;;;;;9.44;100.00;98624.56;10418451;28;20037;-68
2024/01/03 01:38:13;;;;;;;22.45;7.00;;;;;;;9.50;100.00;98661.41;10414718;28;20040;-68
2024/01/03 01:43:13;;;;;;;22.48;7.28;;;;;;;9.54;100.00;98672.56;10418904;28;20045;-68
2024/01/03 01:48:15;;;;;;;29.63;7.03;;;;;;;9.52;100.00;98674.69;10418737;28;20507;-69
2024/01/03 01:53:15;;;;;;;15.50;6.43;;;;;;;9.48;100.00;98684.34;10412705;28;20030;-68
2024/01/03 01:58:16;;;;;;;19.10;8.50;;;;;;;9.31;100.00;98668.91;10411725;28;20083;-67
2024/01/03 02:03:16;;;;;;;25.85;6.72;;;;;;;9.40;100.00;98692.84;10412940;28;20471;-68
2024/01/03 02:08:17;;;;;;;17.38;5.35;;;;;;;9.39;100.00;98680.41;10411178;28;20025;-68
2024/01/03 02:13:17;;;;;;;34.75;7.72;;;;;;;9.27;100.00;98694.78;10412057;28;20095;-68
2024/01/03 02:18:17;;;;;;;23.08;5.72;;;;;;;9.19;100.00;98691.66;10412847;28;20357;-68
2024/01/03 02:23:18;;;;;;;9.82;4.40;;;;;;;9.18;100.00;98708.91;10394848;28;20068;-68
2024/01/03 02:28:18;;;;;;;24.48;6.10;;;;;;;9.15;100.00;98693.19;10412421;28;20107;-68
2024/01/03 02:33:19;;;;;;;24.95;5.78;;;;;;;9.15;100.00;98702.13;10411554;28;20105;-68
2024/01/03 02:38:21;;;;;;;16.55;4.93;;;;;;;9.26;100.00;98700.44;10412252;28;20037;-68
2024/01/03 02:43:21;;;;;;;13.07;5.07;;;;;;;9.27;100.00;98704.78;10411866;28;20106;-68
2024/01/03 02:48:22;;;;;;;26.02;6.22;;;;;;;9.38;100.00;98711.16;10411531;28;20063;-68
2024/01/03 02:53:22;;;;;;;31.80;6.38;;;;;;;9.38;100.00;98722.81;10411485;28;20029;-69
2024/01/03 02:58:23;;;;;;;14.45;4.47;;;;;;;9.39;100.00;98721.75;10411607;28;20214;-68
2024/01/03 03:03:23;;;;;;;29.10;6.70;;;;;;;9.53;100.00;98736.56;10412100;28;20080;-68
2024/01/03 03:08:23;;;;;;;14.48;7.65;;;;;;;9.71;100.00;98732.00;10409287;28;20037;-69
2024/01/03 03:13:24;;;;;;;29.88;6.63;;;;;;;9.73;100.00;98725.28;10411056;28;20033;-68
2024/01/03 03:18:24;;;;;;;23.27;7.25;;;;;;;9.69;100.00;98720.63;10434556;28;20025;-68
2024/01/03 03:23:25;;;;;;;23.63;7.78;;;;;;;9.76;100.00;98723.97;10422250;28;20119;-68
2024/01/03 03:28:25;;;;;;;15.43;8.20;;;;;;;9.71;100.00;98727.41;10419520;28;20065;-68
2024/01/03 03:33:26;;;;;;;16.15;6.97;;;;;;;9.74;100.00;98723.41;10418307;28;20238;-68
2024/01/03 03:38:26;;;;;;;21.20;6.63;;;;;;;9.74;100.00;98723.41;10418419;28;20033;-68
2024/01/03 03:43:26;;;;;;;37.92;9.75;;;;;;;9.51;100.00;98722.50;10418442;28;20419;-69
2024/01/03 03:48:27;;;;;;;12.18;6.07;;;;;;;9.39;100.00;98739.84;10433135;28;20072;-68
2024/01/03 03:53:27;;;;;;;36.75;10.18;;;;;;;9.28;100.00;98739.66;10417558;28;20103;-68
2024/01/03 03:58:28;;;;;;;21.25;9.65;;;;;;;9.29;100.00;98743.97;10417510;28;20056;-68
2024/01/03 04:03:28;;;;;;;45.67;11.15;;;;;;;9.44;100.00;98743.41;10417756;28;20113;-68
2024/01/03 04:08:28;;;;;;;42.42;11.18;;;;;;;9.54;100.00;98748.22;10432591;28;20033;-68
2024/01/03 04:13:30;;;;;;;22.13;7.68;;;;;;;9.49;100.00;98753.50;10416072;28;20041;-69
2024/01/03 04:18:30;;;;;;;30.33;9.55;;;;;;;9.46;100.00;98748.59;10417347;28;20029;-68
2024/01/03 04:23:34;;;;;;;38.55;11.00;;;;;;;9.65;100.00;98738.38;10416526;28;20493;-68
2024/01/03 04:28:34;;;;;;;37.38;11.43;;;;;;;9.78;100.00;98756.97;10417943;28;20033;-69
2024/01/03 04:33:35;;;;;;;38.78;10.80;;;;;;;9.89;100.00;98750.69;10416289;28;20029;-69
2024/01/03 04:38:35;;;;;;;37.30;13.32;;;;;;;9.96;100.00;98747.81;10415609;28;20037;-68
2024/01/03 04:43:35;;;;;;;28.55;9.13;;;;;;;9.95;100.00;98752.38;10417253;28;20168;-69
2024/01/03 04:48:36;;;;;;;30.95;10.93;;;;;;;9.99;100.00;98745.44;10416042;28;20118;-69
2024/01/03 04:53:37;;;;;;;41.08;11.07;;;;;;;9.99;100.00;98734.63;10415433;28;20034;-68
2024/01/03 04:58:37;;;;;;;31.48;9.60;;;;;;;10.05;100.00;98734.69;10415252;28;20025;-68
2024/01/03 05:03:38;;;;;;;31.00;8.80;;;;;;;9.98;100.00;98760.00;10430013;28;20045;-69
2024/01/03 05:08:38;;;;;;;37.53;8.68;;;;;;;10.01;100.00;98759.50;10414924;28;20037;-68
2024/01/03 05:13:39;;;;;;;34.63;8.57;;;;;;;9.92;100.00;98755.59;10414127;28;20421;-69
2024/01/03 05:18:39;;;;;;;23.15;8.02;;;;;;;9.87;100.00;98760.91;10413949;28;20061;-68
2024/01/03 05:23:40;;;;;;;20.60;8.32;;;;;;;9.80;100.00;98754.88;10414058;28;20048;-68
2024/01/03 05:28:40;;;;;;;24.88;9.07;;;;;;;9.80;100.00;98764.88;10414240;28;20372;-68
2024/01/03 05:33:40;;;;;;;23.60;6.38;;;;;;;9.75;100.00;98754.78;10417998;28;20109;-68
2024/01/03 05:38:41;;;;;;;15.20;4.38;;;;;;;9.74;100.00;98747.72;10414423;28;20029;-69
2024/01/03 05:43:41;;;;;;;15.45;4.78;;;;;;;9.73;100.00;98752.31;10413621;28;20402;-69
2024/01/03 05:48:42;;;;;;;26.65;5.47;;;;;;;9.61;100.00;98764.25;10414233;28;20112;-70
2024/01/03 05:53:47;;;;;;;12.55;4.40;;;;;;;9.48;100.00;98765.38;10412646;28;20037;-69
2024/01/03 05:58:47;;;;;;;8.52;4.72;;;;;;;9.27;100.00;98765.00;10413335;28;20512;-68
2024/01/03 06:03:49;;;;;;;5.30;3.13;;;;;;;9.10;100.00;98758.75;10411912;28;20214;-68
2024/01/03 06:08:50;;;;;;;12.85;4.20;;;;;;;9.05;100.00;98775.63;10334308;28;20050;-68
2024/01/03 06:13:51;;;;;;;38.08;6.82;;;;;;;9.06;100.00;98774.59;10410921;28;20474;-69
2024/01/03 06:18:51;;;;;;;23.10;6.80;;;;;;;9.12;100.00;98772.81;10412150;28;20164;-68
2024/01/03 06:23:52;;;;;;;15.95;5.15;;;;;;;9.16;100.00;98786.66;10410889;28;20052;-69
2024/01/03 06:28:52;;;;;;;13.43;5.55;;;;;;;9.16;100.00;98781.25;10412696;28;20458;-68
2024/01/03 06:33:53;;;;;;;21.85;6.20;;;;;;;9.14;100.00;98780.69;10410290;28;20507;-68
2024/01/03 06:38:53;;;;;;;24.20;6.72;;;;;;;9.09;100.00;98792.19;10414133;28;20104;-68
2024/01/03 06:43:53;;;;;;;24.13;5.38;;;;;;;9.01;100.00;98782.59;10411753;28;20159;-68
2024/01/03 06:48:55;;;;;;;23.38;5.07;;;;;;;9.01;100.00;98787.16;10411766;28;20344;-69
2024/01/03 06:53:56;;;;;;;27.45;5.60;;;;;;;8.85;100.00;98784.16;10411853;28;20437;-68
2024/01/03 06:58:57;;;;;;;26.50;5.43;;;;;;;8.83;100.00;98802.44;10415008;28;20065;-68
2024/01/03 07:04:02;;;;;;;12.88;4.10;;;;;;;8.89;100.00;98800.69;10418186;28;20060;-68
2024/01/03 07:09:02;;;;;;;19.02;4.57;;;;;;;8.90;100.00;98815.00;10420611;28;20065;-68
2024/01/03 07:14:04;;;;;;;22.13;5.45;;;;;;;8.98;100.00;98815.47;10419237;28;20677;-68
2024/01/03 07:19:05;;;;;;;1.30;1.30;;;;;;;9.04;100.00;98824.50;10419591;28;20037;-69
2024/01/03 07:24:05;;;;;;;6.45;5.63;;;;;;;9.15;100.00;98825.50;10419711;28;20546;-68
2024/01/03 07:29:06;;;;;;;2.08;1.15;;;;;;;9.19;100.00;98826.66;10418615;28;20112;-68
2024/01/03 07:34:06;;;;;;;0.65;0.65;;;;;;;9.27;100.00;98839.81;10417206;28;20041;-70
2024/01/03 07:39:08;;;;;;;3.83;3.50;;;;;;;9.35;100.00;98839.44;10434517;28;20088;-68
2024/01/03 07:44:09;;;;;;;0.52;0.52;;;;;;;9.39;100.00;98839.78;10418122;28;20037;-69
2024/01/03 07:49:10;;;;;;;0.40;0.40;;;;;;;9.40;100.00;98839.53;10418308;28;20045;-69
2024/01/03 07:54:12;;;;;;;1.42;1.38;;;;;;;9.41;100.00;98838.47;10418514;28;20503;-68
2024/01/03 07:59:12;;;;;;;1.25;1.25;;;;;;;9.39;100.00;98851.41;10417185;28;20156;-68
2024/01/03 08:04:13;;;;;;;0.40;0.40;;;;;;;9.43;100.00;98865.25;10416980;28;20117;-68
2024/01/03 08:09:14;;;;;;;0.70;0.70;;;;;;;9.54;100.00;98865.22;10431860;28;20033;-69
2024/01/03 08:14:14;;;;;;;2.20;2.10;;;;;;;9.57;100.00;98863.06;10416795;28;20037;-68
2024/01/03 08:19:15;;;;;;;0.60;0.60;;;;;;;9.63;100.00;98870.22;10416519;28;20060;-68
2024/01/03 08:24:15;;;;;;;0.35;0.35;;;;;;;9.59;100.00;98874.47;10431565;28;20064;-68
2024/01/03 08:29:16;;;;;;;1.23;1.23;;;;;;;9.59;100.00;98869.88;10415909;28;20103;-69
2024/01/03 08:34:16;;;;;;;0.50;0.50;;;;;;;9.64;100.00;98871.88;10415844;28;20053;-68
2024/01/03 08:39:17;;;;;;;0.70;0.70;;;;;;;9.68;100.00;98873.03;10419560;28;20068;-69
2024/01/03 08:44:17;;;;;;;0.60;0.60;;;;;;;9.74;100.00;98881.00;10423360;28;20070;-69
2024/01/03 08:49:18;;;;;;;0.45;0.45;;;;;;;9.87;100.00;98879.88;10418530;28;20112;-69
2024/01/03 08:54:18;;;;;;;0.50;0.50;;;;;;;9.91;100.00;98891.03;10416239;28;20034;-68
2024/01/03 08:59:18;;;;;;;0.50;0.50;;;;;;;9.84;100.00;98883.06;10414496;28;20048;-69
2024/01/03 09:04:19;;;;;;;1.73;1.58;;;;;;;9.85;100.00;98906.31;10414221;28;20057;-68
2024/01/03 09:09:19;;;;;;;0.60;0.60;;;;;;;9.76;100.00;98914.00;10414885;28;20071;-69
2024/01/03 09:14:20;;;;;;;0.50;0.50;;;;;;;9.64;100.00;98915.13;10414655;28;20040;-69
2024/01/03 09:19:21;;;;;;;0.50;0.50;;;;;;;9.65;100.00;98920.25;10413596;28;20041;-68
2024/01/03 09:24:21;;;;;;;1.15;1.15;;;;;;;9.66;100.00;98926.47;10414513;28;20053;-69
2024/01/03 09:29:22;;;;;;;0.50;0.50;;;;;;;9.69;100.00;98918.72;10415112;28;20033;-69
2024/01/03 09:34:23;;;;;;;3.78;2.15;;;;;;;9.74;100.00;98937.75;10414077;28;20073;-69
2024/01/03 09:39:24;;;;;;;13.60;5.10;;;;;;;9.66;100.00;98935.41;10414335;28;20041;-68
2024/01/03 09:44:25;;;;;;;14.75;5.97;;;;;;;9.69;100.00;98939.53;10429157;28;20028;-69
2024/01/03 09:49:26;;;;;;;24.40;4.75;;;;;;;9.77;100.00;98953.50;10395768;28;20032;-69
2024/01/03 09:54:26;;;;;;;15.10;6.43;;;;;;;9.84;100.00;98937.13;10413517;28;20476;-68
2024/01/03 09:59:26;;;;;;;7.25;4.32;;;;;;;9.92;100.00;98954.84;10411345;28;20440;-68
2024/01/03 10:04:27;;;;;;;26.15;6.53;;;;;;;9.98;100.00;98949.28;10417103;28;20029;-68
2024/01/03 10:09:49;;;;;;;23.60;5.80;;;;;;;10.12;100.00;98954.41;10411418;28;20103;-69
2024/01/03 10:14:50;;;;;;;14.65;6.60;;;;;;;10.15;100.00;98952.06;10414086;28;20037;-69
2024/01/03 10:19:50;;;;;;;26.75;6.55;;;;;;;10.23;100.00;98964.34;10411694;28;20033;-69
2024/01/03 10:24:50;;;;;;;17.85;5.60;;;;;;;10.42;100.00;98967.69;10410267;28;20049;-69
2024/01/03 10:29:51;;;;;;;15.10;5.07;;;;;;;10.30;100.00;98967.75;10411566;28;20128;-69
2024/01/03 10:34:51;;;;;;;22.67;5.88;;;;;;;10.25;100.00;98975.75;10410877;28;20083;-69
2024/01/03 10:39:52;;;;;;;22.80;6.38;;;;;;;10.19;100.00;98969.44;10410173;28;20033;-69
2024/01/03 10:44:53;;;;;;;21.00;6.40;;;;;;;10.19;100.00;98965.91;10411392;28;20053;-69
2024/01/03 10:49:53;;;;;;;23.60;6.38;;;;;;;10.14;100.00;98971.22;10426745;28;20480;-69
2024/01/03 10:54:54;;;;;;;13.15;5.63;;;;;;;10.22;100.00;98968.13;10411097;28;20030;-68
2024/01/03 11:00:09;;;;;;;21.45;6.55;;;;;;;10.25;100.00;98959.53;10409022;28;20372;-69
2024/01/03 11:05:17;;;;;;;18.88;5.45;;;;;;;10.40;100.00;98951.72;10411134;28;20356;-69
2024/01/03 11:10:51;;;;;;;17.55;7.68;;;;;;;10.46;100.00;98961.56;10425791;28;20375;-68
2024/01/03 11:15:53;;;;;;;34.38;6.65;;;;;;;10.83;100.00;98966.50;10411434;28;20334;-69
2024/01/03 11:20:53;;;;;;;18.05;6.72;;;;;;;11.09;100.00;98948.75;10410552;28;20029;-68
2024/01/03 11:25:54;;;;;;;22.23;6.10;;;;;;;11.20;100.00;98947.00;10409392;28;20045;-68
2024/01/03 11:30:54;;;;;;;26.30;8.80;;;;;;;11.23;100.00;98943.81;10411386;28;20045;-69
2024/01/03 11:35:54;;;;;;;29.23;7.82;;;;;;;11.24;100.00;98942.72;10409802;28;20473;-69
2024/01/03 11:40:55;;;;;;;22.80;8.73;;;;;;;11.08;100.00;98938.16;10409940;28;20048;-68
2024/01/03 11:46:15;;;;;;;35.33;9.93;;;;;;;10.99;100.00;98942.38;10414524;28;20025;-68
2024/01/03 11:51:22;;;;;;;51.30;12.95;;;;;;;10.94;100.00;98946.66;10418277;28;20087;-69
2024/01/03 11:56:32;;;;;;;45.03;10.77;;;;;;;10.97;100.00;98937.19;10416454;28;20032;-69
2024/01/03 12:01:33;;;;;;;49.03;10.60;;;;;;;10.90;100.00;98931.94;10417260;28;20376;-68
2024/01/03 12:06:33;;;;;;;28.05;8.23;;;;;;;10.96;100.00;98932.03;10416221;28;20021;-69
2024/01/03 12:11:34;;;;;;;31.65;8.57;;;;;;;11.12;100.00;98932.00;10432797;28;20087;-68
2024/01/03 12:16:53;;;;;;;43.38;7.60;;;;;;;11.10;100.00;98917.03;10415410;28;20420;-69
2024/01/03 12:21:58;;;;;;;24.85;7.80;;;;;;;10.90;100.00;98918.41;10417912;28;20052;-68
2024/01/03 12:26:58;;;;;;;23.83;7.25;;;;;;;10.63;100.00;98907.44;10414330;28;20046;-68
2024/01/03 12:32:12;;;;;;;38.35;8.80;;;;;;;10.56;100.00;98906.78;10415703;28;20041;-68
2024/01/03 12:37:16;;;;;;;25.30;7.35;;;;;;;10.30;100.00;98907.41;10416925;28;20042;-68
2024/01/03 12:42:16;;;;;;;30.92;8.98;;;;;;;10.34;100.00;98900.44;10415637;28;20068;-68
2024/01/03 12:47:16;;;;;;;41.58;11.35;;;;;;;10.32;100.00;98905.31;10416072;28;20441;-68
2024/01/03 12:52:25;;;;;;;20.73;7.30;;;;;;;10.48;100.00;98899.06;10414815;28;20045;-68
2024/01/03 12:57:25;;;;;;;19.00;8.23;;;;;;;10.68;100.00;98891.25;10415552;28;20037;-68
2024/01/03 13:02:26;;;;;;;26.25;9.05;;;;;;;10.52;100.00;98892.09;10415268;28;20406;-68
2024/01/03 13:07:26;;;;;;;34.33;8.00;;;;;;;10.33;100.00;98886.09;10415216;28;20025;-68
2024/01/03 13:12:27;;;;;;;31.65;11.38;;;;;;;10.27;100.00;98878.16;10429761;28;20112;-69
2024/01/03 13:17:27;;;;;;;40.22;10.45;;;;;;;10.35;100.00;98877.75;10414959;28;20116;-68
2024/01/03 13:22:28;;;;;;;37.72;10.57;;;;;;;10.34;100.00;98866.13;10415756;28;20061;-69
2024/01/03 13:27:28;;;;;;;34.42;10.85;;;;;;;10.34;100.00;98866.13;10411960;28;20092;-68
2024/01/03 13:32:29;;;;;;;33.17;9.52;;;;;;;10.31;100.00;98858.50;10412627;28;20353;-68
2024/01/03 13:37:29;;;;;;;3.13;1.77;;;;;;;10.41;100.00;98853.25;10428422;28;20034;-68
2024/01/03 13:42:29;;;;;;;1.45;1.45;;;;;;;10.28;100.00;98831.94;10413707;28;20061;-68
2024/01/03 13:47:30;;;;;;;0.50;0.50;;;;;;;10.17;100.00;98854.41;10428811;28;20033;-68
2024/01/03 13:52:30;;;;;;;3.20;2.05;;;;;;;10.08;100.00;98858.59;10395092;28;20036;-67
2024/01/03 13:57:30;;;;;;;15.57;2.13;;;;;;;9.89;100.00;98850.72;10413147;28;20163;-69
2024/01/03 14:02:31;;;;;;;2.08;1.98;;;;;;;9.80;100.00;98865.69;10412491;28;20053;-69
2024/01/03 14:07:31;;;;;;;0.93;0.93;;;;;;;9.60;100.00;98865.28;10411775;28;20048;-70
2024/01/03 14:12:32;;;;;;;0.52;0.52;;;;;;;9.19;100.00;98850.97;10413723;28;20132;-69
2024/01/03 14:17:33;;;;;;;0.43;0.43;;;;;;;9.03;100.00;98852.53;10411647;28;20029;-69
2024/01/03 14:22:33;;;;;;;0.40;0.40;;;;;;;9.03;100.00;98855.22;10412043;28;20048;-70
2024/01/03 14:27:33;;;;;;;0.68;0.68;;;;;;;8.98;100.00;98849.72;10410477;28;20057;-71
2024/01/03 14:32:34;;;;;;;0.40;0.40;;;;;;;8.93;100.00;98845.03;10412011;28;20037;-69
2024/01/03 14:37:34;;;;;;;1.05;1.05;;;;;;;8.94;100.00;98846.69;10429697;28;20049;-70
2024/01/03 14:42:37;;;;;;;1.63;1.55;;;;;;;9.01;100.00;98847.38;10411322;28;20026;-69
2024/01/03 14:47:38;;;;;;;0.40;0.40;;;;;;;9.06;100.00;98850.19;10411781;28;20025;-70
2024/01/03 14:52:38;;;;;;;0.43;0.43;;;;;;;9.04;100.00;98857.72;10411920;28;20083;-69
2024/01/03 14:57:39;;;;;;;4.25;3.60;;;;;;;9.04;100.00;98844.19;10411764;28;20033;-70
2024/01/03 15:02:39;;;;;;;0.50;0.50;;;;;;;9.04;100.00;98844.19;10411030;28;20116;-70
2024/01/03 15:07:40;;;;;;;0.50;0.50;;;;;;;9.04;100.00;98846.09;10410387;28;20029;-69
2024/01/03 15:12:40;;;;;;;2.00;1.92;;;;;;;9.05;100.00;98835.03;10411924;28;20505;-69
2024/01/03 15:17:41;;;;;;;0.50;0.50;;;;;;;9.07;100.00;98830.22;10411993;28;20542;-70
2024/01/03 15:22:42;;;;;;;0.40;0.40;;;;;;;9.07;100.00;98829.41;10418206;28;20037;-71
2024/01/03 15:27:43;;;;;;;0.50;0.50;;;;;;;9.23;100.00;98823.25;10418045;28;20041;-69
2024/01/03 15:32:43;;;;;;;0.70;0.70;;;;;;;9.31;100.00;98822.06;10418562;28;20318;-69
2024/01/03 15:37:44;;;;;;;22.83;6.93;;;;;;;9.31;100.00;98819.34;10417746;28;20159;-70
2024/01/03 15:42:44;;;;;;;0.40;0.40;;;;;;;9.45;100.00;98836.94;10417472;28;20132;-69
2024/01/03 15:47:45;;;;;;;1.27;1.10;;;;;;;9.40;100.00;98830.59;10417454;28;20037;-69
2024/01/03 15:52:45;;;;;;;2.72;2.63;;;;;;;9.31;100.00;98827.44;10417695;28;20325;-69
2024/01/03 15:57:46;;;;;;;0.43;0.43;;;;;;;8.98;100.00;98825.44;10416111;28;20033;-69
2024/01/03 16:02:47;;;;;;;0.40;0.40;;;;;;;8.84;100.00;98838.38;10418186;28;20330;-69
2024/01/03 16:07:47;;;;;;;0.32;0.32;;;;;;;8.88;100.00;98836.03;10417134;28;20057;-70
2024/01/03 16:12:48;;;;;;;2.30;1.23;;;;;;;8.83;100.00;98836.72;10417380;28;20042;-70
2024/01/03 16:17:48;;;;;;;2.25;2.15;;;;;;;8.74;100.00;98835.44;10418185;28;20171;-69
2024/01/03 16:22:48;;;;;;;0.45;0.45;;;;;;;8.63;100.00;98841.69;10415020;28;20033;-69
2024/01/03 16:27:49;;;;;;;0.60;0.60;;;;;;;8.48;100.00;98836.75;10417260;28;20056;-69
2024/01/03 16:32:50;;;;;;;0.50;0.50;;;;;;;8.44;100.00;98830.19;10416233;28;20025;-69
2024/01/03 16:37:50;;;;;;;0.52;0.52;;;;;;;8.52;100.00;98843.31;10415981;28;20342;-69
2024/01/03 16:42:51;;;;;;;3.88;3.70;;;;;;;8.62;100.00;98840.88;10398856;28;20037;-68
2024/01/03 16:47:51;;;;;;;0.98;0.98;;;;;;;8.77;100.00;98837.66;10414330;28;20108;-68
2024/01/03 16:52:52;;;;;;;0.40;0.40;;;;;;;8.93;100.00;98872.03;10416747;28;20057;-69
2024/01/03 16:57:52;;;;;;;1.15;1.02;;;;;;;8.70;100.00;98878.25;10415673;28;20037;-68
2024/01/03 17:02:55;;;;;;;1.27;1.27;;;;;;;8.38;100.00;98875.09;10414703;28;20029;-69
2024/01/03 17:07:55;;;;;;;5.88;1.88;;;;;;;8.15;100.00;98868.56;10414753;28;20493;-68
2024/01/03 17:12:56;;;;;;;0.40;0.40;;;;;;;8.03;100.00;98867.72;10414096;28;20128;-68
2024/01/03 17:17:56;;;;;;;0.52;0.52;;;;;;;8.03;100.00;98862.34;10415944;28;20029;-69
2024/01/03 17:22:57;;;;;;;0.50;0.50;;;;;;;8.07;100.00;98863.53;10415125;28;20037;-68
2024/01/03 17:27:57;;;;;;;0.50;0.50;;;;;;;8.10;100.00;98871.16;10415981;28;20096;-69
2024/01/03 17:32:58;;;;;;;0.50;0.50;;;;;;;8.08;100.00;98877.81;10415179;28;20032;-68
2024/01/03 17:37:58;;;;;;;0.45;0.45;;;;;;;8.14;100.00;98883.13;10416359;28;20349;-68
2024/01/03 17:42:58;;;;;;;0.50;0.50;;;;;;;8.10;100.00;98889.19;10413764;28;20065;-69
2024/01/03 17:47:59;;;;;;;0.50;0.50;;;;;;;8.06;100.00;98899.59;10415491;28;20032;-68
2024/01/03 17:52:59;;;;;;;0.50;0.50;;;;;;;8.18;100.00;98902.34;10411586;28;20029;-69
2024/01/03 17:58:00;;;;;;;0.50;0.50;;;;;;;8.25;100.00;98891.44;10412705;28;20034;-68
2024/01/03 18:03:00;;;;;;;3.60;3.45;;;;;;;8.33;100.00;98889.25;10412373;28;20034;-68
2024/01/03 18:08:00;;;;;;;0.50;0.50;;;;;;;8.41;100.00;98890.00;10412669;28;20026;-68
2024/01/03 18:13:02;;;;;;;0.40;0.40;;;;;;;8.48;100.00;98896.09;10413016;28;20422;-70
2024/01/03 18:18:03;;;;;;;0.40;0.40;;;;;;;8.47;100.00;98908.75;10410894;28;20037;-70
2024/01/03 18:23:04;;;;;;;0.40;0.40;;;;;;;8.48;100.00;98929.28;10410735;28;20453;-69
2024/01/03 18:28:05;;;;;;;0.50;0.50;;;;;;;8.36;100.00;98921.16;10412752;28;20067;-70
2024/01/03 18:33:07;;;;;;;0.50;0.50;;;;;;;8.23;100.00;98925.91;10411797;28;20099;-68
2024/01/03 18:38:07;;;;;;;0.40;0.40;;;;;;;8.08;100.00;98924.47;10412193;28;20029;-69
2024/01/03 18:43:09;;;;;;;1.58;1.58;;;;;;;7.94;100.00;98933.78;10411509;28;20033;-68
2024/01/03 18:48:09;;;;;;;0.93;0.93;;;;;;;8.04;100.00;98935.91;10412228;28;20053;-68
2024/01/03 18:53:10;;;;;;;0.50;0.50;;;;;;;8.23;100.00;98936.69;10412602;28;20045;-71
2024/01/03 18:58:10;;;;;;;0.50;0.50;;;;;;;8.42;100.00;98946.38;10418990;28;20029;-69
2024/01/03 19:03:10;;;;;;;0.40;0.40;;;;;;;8.58;100.00;98956.53;10422021;28;20076;-69
2024/01/03 19:08:11;;;;;;;1.08;1.08;;;;;;;8.61;100.00;98964.16;10419294;28;20407;-68
2024/01/03 19:13:12;;;;;;;1.55;1.25;;;;;;;8.48;100.00;98969.72;10419572;28;20038;-68
2024/01/03 19:18:13;;;;;;;0.50;0.50;;;;;;;8.35;100.00;98983.38;10418246;28;20037;-69
2024/01/03 19:23:13;;;;;;;0.30;0.30;;;;;;;8.31;100.00;99004.59;10418700;28;20060;-69
2024/01/03 19:28:13;;;;;;;0.57;0.57;;;;;;;8.21;100.00;99009.72;10424750;28;20080;-71
2024/01/03 19:33:14;;;;;;;0.40;0.40;;;;;;;8.25;100.00;99015.50;10422928;28;20033;-69
2024/01/03 19:38:14;;;;;;;0.55;0.55;;;;;;;8.18;100.00;99020.97;10416988;28;20037;-68
2024/01/03 19:43:18;;;;;;;0.40;0.40;;;;;;;8.11;100.00;99033.72;10416520;28;20420;-69
2024/01/03 19:48:19;;;;;;;1.15;1.15;;;;;;;8.06;100.00;99045.16;10417650;28;20029;-69
2024/01/03 19:53:19;;;;;;;0.52;0.52;;;;;;;8.13;100.00;99043.22;10418375;28;20045;-69
2024/01/03 19:58:20;;;;;;;0.50;0.50;;;;;;;8.26;100.00;99052.19;10417949;28;20030;-69
2024/01/03 20:03:21;;;;;;;0.50;0.50;;;;;;;8.34;100.00;99062.66;10418088;28;20036;-70
2024/01/03 20:08:22;;;;;;;0.50;0.50;;;;;;;8.39;100.00;99065.50;10415105;28;20033;-70
2024/01/03 20:13:22;;;;;;;0.40;0.40;;;;;;;8.47;100.00;99073.31;10417104;28;20033;-70
2024/01/03 20:18:23;;;;;;;1.48;1.48;;;;;;;8.50;100.00;99082.81;10399963;28;20029;-69
2024/01/03 20:23:23;;;;;;;0.73;0.73;;;;;;;8.47;100.00;99084.09;10416744;28;20496;-70
2024/01/03 20:28:24;;;;;;;1.10;1.10;;;;;;;8.36;100.00;99087.53;10417217;28;20057;-70
2024/01/03 20:33:24;;;;;;;1.08;1.08;;;;;;;8.42;100.00;99100.13;10430681;28;20045;-70
2024/01/03 20:38:25;;;;;;;0.50;0.50;;;;;;;8.37;100.00;99100.78;10415775;28;20056;-70
2024/01/03 20:43:25;;;;;;;0.40;0.40;;;;;;;8.30;100.00;99112.72;10415656;28;20095;-70
2024/01/03 20:48:26;;;;;;;0.60;0.60;;;;;;;8.40;100.00;99126.50;10415996;28;20030;-70
2024/01/03 20:53:28;;;;;;;0.50;0.50;;;;;;;8.45;100.00;99129.34;10414815;28;20034;-70
2024/01/03 20:58:29;;;;;;;4.63;3.17;;;;;;;8.48;100.00;99150.47;10413719;28;20061;-69
2024/01/03 21:03:30;;;;;;;2.17;1.98;;;;;;;8.45;100.00;99156.31;10416909;28;20033;-69
2024/01/03 21:08:30;;;;;;;0.50;0.50;;;;;;;8.50;100.00;99163.75;10415110;28;20026;-70
2024/01/03 21:13:32;;;;;;;0.40;0.40;;;;;;;8.47;100.00;99158.81;10430843;28;20032;-70
2024/01/03 21:18:35;;;;;;;1.40;1.40;;;;;;;8.54;100.00;99173.03;10428806;28;20026;-70
2024/01/03 21:23:36;;;;;;;3.70;3.40;;;;;;;8.46;100.00;99174.16;10429962;28;20104;-71
2024/01/03 21:28:36;;;;;;;1.58;1.52;;;;;;;8.51;100.00;99179.69;10413405;28;20045;-71
2024/01/03 21:33:37;;;;;;;0.40;0.40;;;;;;;8.64;100.00;99197.59;10413433;28;20106;-71
2024/01/03 21:38:40;;;;;;;0.30;0.30;;;;;;;8.67;100.00;99218.72;10414546;28;20393;-71
2024/01/03 21:43:40;;;;;;;0.40;0.40;;;;;;;8.42;100.00;99220.69;10411330;28;20083;-71
2024/01/03 21:48:41;;;;;;;0.40;0.40;;;;;;;8.23;100.00;99238.69;10413194;28;20026;-71
2024/01/03 21:53:41;;;;;;;0.43;0.43;;;;;;;8.23;100.00;99231.44;10413430;28;20053;-71
2024/01/03 21:58:41;;;;;;;0.40;0.40;;;;;;;8.25;100.00;99250.09;10413489;28;20337;-70
2024/01/03 22:03:42;;;;;;;0.50;0.50;;;;;;;8.28;100.00;99257.72;10413467;28;20073;-70
2024/01/03 22:08:42;;;;;;;0.40;0.40;;;;;;;8.23;100.00;99263.81;10412994;28;20025;-71
2024/01/03 22:13:43;;;;;;;0.60;0.60;;;;;;;8.13;100.00;99276.94;10411092;28;20033;-70
2024/01/03 22:18:43;;;;;;;0.30;0.30;;;;;;;8.10;100.00;99289.03;10413561;28;20072;-71
2024/01/03 22:23:44;;;;;;;0.40;0.40;;;;;;;8.10;100.00;99290.88;10411628;28;20037;-70
2024/01/03 22:28:45;;;;;;;0.45;0.45;;;;;;;8.10;100.00;99298.97;10412622;28;20057;-70
2024/01/03 22:33:45;;;;;;;0.40;0.40;;;;;;;8.12;100.00;99313.06;10412593;28;20049;-71
2024/01/03 22:38:45;;;;;;;0.40;0.40;;;;;;;8.14;100.00;99319.06;10412077;28;20478;-71
2024/01/03 22:43:46;;;;;;;0.50;0.50;;;;;;;8.14;100.00;99340.63;10411479;28;20045;-70
2024/01/03 22:48:47;;;;;;;0.50;0.50;;;;;;;8.11;100.00;99347.28;10411774;28;20040;-71
2024/01/03 22:53:47;;;;;;;0.50;0.50;;;;;;;8.11;100.00;99368.03;10410961;28;20333;-70
2024/01/03 22:58:48;;;;;;;0.73;0.73;;;;;;;8.11;100.00;99384.22;10412339;28;20149;-70
2024/01/03 23:03:49;;;;;;;0.52;0.52;;;;;;;8.09;100.00;99389.81;10411424;28;20437;-69
2024/01/03 23:08:49;;;;;;;0.32;0.32;;;;;;;8.03;100.00;99395.25;10413618;28;20030;-70